Latest Weather Observations for Swanbourne

IDW60801

Issued at 8:02 pm WST Thursday 28 May 2015 (issued every 30 minutes, with the page automatically refreshed every 10 minutes)

About weather observations | Map of weather stations | Latest weather observations for WA | Other Formats
Station Details ID: 009215 Name: SWANBOURNE Lat: -31.96 Lon: 115.76 Height: 40.96 m
Data from the previous 72 hours. | See also: Recent months at Swanbourne
Date/Time
WST
Temp
°C
App
Temp
°C
Dew
Point
Rel
Hum
%
Delta-T
°C
Wind Press
QNH
hPa
Press
MSL
hPa
Rain
since 9 am
mm
Dir
 
Spd
km/h
Gust
km/h
Spd
kts
Gust
kts
28/08:00pm 13.1 11.1 6.9 66 3.0 SE 7 7 4 4 - - 0.0
28/07:30pm 13.3 11.3 6.9 65 3.1 ESE 7 7 4 4 - - 0.0
28/07:00pm 13.4 11.5 6.7 64 3.2 SE 6 7 3 4 - - 0.0
28/06:30pm 13.3 11.3 6.4 63 3.3 SE 6 7 3 4 - - 0.0
28/06:00pm 13.7 11.1 6.3 61 3.5 S 9 11 5 6 - - 0.0
28/05:30pm 14.5 12.4 6.6 59 3.8 S 7 9 4 5 - - 0.0
28/05:00pm 15.9 13.8 6.6 54 4.6 S 7 11 4 6 - - 0.0
28/04:30pm 17.3 15.2 6.8 50 5.2 S 7 13 4 7 - - 0.0
28/04:00pm 18.6 16.4 5.5 42 6.4 SSE 6 15 3 8 - - 0.0
28/03:30pm 19.0 16.8 6.2 43 6.4 ESE 7 15 4 8 - - 0.0
28/03:00pm 19.1 16.0 5.6 41 6.6 SE 11 19 6 10 - - 0.0
28/02:30pm 18.6 15.2 5.8 43 6.3 SE 13 19 7 10 - - 0.0
28/02:00pm 18.7 14.8 5.2 41 6.6 ESE 15 24 8 13 - - 0.0
28/01:30pm 18.9 15.6 6.4 44 6.2 ESE 13 22 7 12 - - 0.0
28/01:00pm 18.3 14.6 6.2 45 6.0 ESE 15 24 8 13 - - 0.0
28/12:30pm 18.0 13.7 6.8 48 5.6 ESE 19 28 10 15 - - 0.0
28/12:00pm 18.1 15.6 8.1 52 5.1 E 11 20 6 11 - - 0.0
28/11:30am 17.7 16.1 8.8 56 4.6 ESE 7 15 4 8 - - 0.0
28/11:00am 15.7 14.0 8.2 61 3.8 ENE 7 13 4 7 - - 0.0
28/10:30am 14.8 12.7 8.3 65 3.3 E 9 13 5 7 - - 0.0
28/10:00am 13.9 11.9 8.5 70 2.7 ESE 9 15 5 8 - - 0.0
28/09:30am 12.8 10.7 8.3 74 2.2 E 9 15 5 8 - - 0.0
28/09:00am 11.7 9.2 8.0 78 1.8 E 11 15 6 8 - - 0.0
28/08:30am 10.1 7.3 7.0 81 1.5 E 11 15 6 8 - - 0.0
28/08:00am 9.1 6.2 6.5 84 1.2 ESE 11 15 6 8 - - 0.0
28/07:30am 7.9 4.5 5.7 86 1.0 ESE 13 15 7 8 - - 0.0
28/07:00am 7.7 4.3 5.7 87 0.9 E 13 15 7 8 - - 0.0
28/06:30am 7.3 3.8 5.4 88 0.8 ESE 13 15 7 8 - - 0.0
28/06:00am 7.2 4.0 5.2 87 0.9 ESE 11 13 6 7 - - 0.0
28/05:30am 7.2 4.0 4.9 85 1.0 E 11 13 6 7 - - 0.0
28/05:00am 7.6 3.9 4.4 80 1.4 E 13 15 7 8 - - 0.0
28/04:30am 7.5 4.2 4.3 80 1.4 ENE 11 13 6 7 - - 0.0
28/04:00am 7.7 4.4 4.5 80 1.4 E 11 13 6 7 - - 0.0
28/03:30am 7.7 4.8 4.5 80 1.4 ENE 9 13 5 7 - - 0.0
28/03:00am 8.0 4.7 4.8 80 1.4 ENE 11 15 6 8 - - 0.0
28/02:30am 8.0 4.7 4.8 80 1.4 E 11 13 6 7 - - 0.0
28/02:00am 8.1 5.2 4.7 79 1.5 E 9 13 5 7 - - 0.0
28/01:30am 8.8 5.2 5.0 77 1.7 ENE 13 17 7 9 - - 0.0
28/01:00am 8.9 5.7 4.9 76 1.8 E 11 15 6 8 - - 0.0
28/12:30am 9.4 6.2 5.0 74 2.0 ENE 11 13 6 7 - - 0.0
28/12:00am 9.7 6.5 5.3 74 2.0 ENE 11 15 6 8 - - 0.0
 
Date/Time
WST
Temp
°C
App
Temp
°C
Dew
Point
Rel
Hum
%
Delta-T
°C
Wind Press
QNH
hPa
Press
MSL
hPa
Rain
since 9 am
mm
Dir
 
Spd
km/h
Gust
km/h
Spd
kts
Gust
kts
27/11:30pm 10.1 7.0 5.5 73 2.1 ENE 11 15 6 8 - - 0.0
27/11:00pm 10.6 7.5 5.6 71 2.3 ENE 11 13 6 7 - - 0.0
27/10:30pm 10.5 7.1 5.7 72 2.2 ENE 13 17 7 9 - - 0.0
27/10:00pm 10.9 7.8 5.7 70 2.4 E 11 13 6 7 - - 0.0
27/09:30pm 11.1 8.0 5.6 69 2.5 E 11 13 6 7 - - 0.0
27/09:00pm 11.8 9.5 5.7 66 2.8 ESE 7 7 4 4 - - 0.0
27/08:30pm 12.1 9.8 5.7 65 3.0 ESE 7 9 4 5 - - 0.0
27/08:00pm 12.2 9.9 5.6 64 3.1 SE 7 9 4 5 - - 0.0
27/07:30pm 12.8 10.0 5.2 60 3.5 ESE 9 11 5 6 - - 0.0
27/07:00pm 13.0 9.9 5.4 60 3.6 SE 11 15 6 8 - - 0.0
27/06:30pm 13.2 10.5 5.4 59 3.7 SSE 9 15 5 8 - - 0.0
27/06:00pm 13.6 10.9 5.5 58 3.8 SSE 9 15 5 8 - - 0.0
27/05:30pm 14.4 11.7 5.5 55 4.2 SE 9 17 5 9 - - 0.0
27/05:00pm 15.2 12.5 5.7 53 4.5 SSE 9 17 5 9 - - 0.0
27/04:30pm 16.5 12.9 4.9 46 5.5 S 13 22 7 12 - - 0.0
27/04:00pm 17.9 14.1 5.8 45 5.9 SSE 15 26 8 14 - - 0.0
27/03:30pm 18.2 14.7 5.4 43 6.2 S 13 22 7 12 - - 0.0
27/03:00pm 18.9 16.0 6.4 44 6.2 SSE 11 19 6 10 - - 0.0
27/02:30pm 17.9 14.0 5.5 44 6.0 SE 15 22 8 12 - - 0.0
27/02:00pm 18.9 15.2 6.4 44 6.2 SSE 15 20 8 11 - - 0.0
27/01:30pm 19.1 15.7 5.9 42 6.5 SSE 13 22 7 12 - - 0.0
27/01:00pm 18.7 15.4 6.5 45 6.1 SSE 13 20 7 11 - - 0.0
27/12:30pm 18.8 15.2 6.6 45 6.1 SE 15 24 8 13 - - 0.0
27/12:00pm 18.3 14.5 5.8 44 6.1 SE 15 24 8 13 - - 0.0
27/11:30am 17.9 14.0 7.0 49 5.5 SSE 17 24 9 13 - - 0.0
27/11:00am 17.5 14.4 7.3 51 5.1 SE 13 22 7 12 - - 0.0
27/10:30am 16.5 13.0 7.2 54 4.6 ESE 15 22 8 12 - - 0.0
27/10:00am 16.3 14.3 8.5 60 4.0 ESE 9 17 5 9 - - 0.0
27/09:30am 15.2 13.7 9.1 67 3.1 ESE 7 9 4 5 - - 0.0
27/09:00am 13.9 12.4 9.3 74 2.3 E 7 13 4 7 - - 0.2
27/08:30am 12.0 10.2 9.6 85 1.2 E 9 13 5 7 - - 0.2
27/08:00am 10.3 8.4 8.9 91 0.7 E 9 13 5 7 - - 0.2
27/07:30am 10.4 7.8 9.2 92 0.6 ESE 13 15 7 8 - - 0.2
27/07:00am 10.2 7.9 9.1 93 0.5 E 11 11 6 6 - - 0.2
27/06:30am 10.5 8.6 9.1 91 0.7 E 9 11 5 6 - - 0.2
27/06:00am 10.6 8.8 9.4 92 0.6 E 9 13 5 7 - - 0.2
27/05:30am 10.5 8.4 9.6 94 0.5 E 11 13 6 7 - - 0.2
27/05:00am 9.9 7.2 8.8 93 0.5 ESE 13 17 7 9 - - 0.2
27/04:30am 10.3 8.1 9.2 93 0.5 E 11 13 6 7 - - 0.2
27/04:00am 10.3 7.6 9.1 92 0.6 ESE 13 15 7 8 - - 0.2
27/03:30am 10.2 7.5 9.0 92 0.6 ESE 13 15 7 8 - - 0.2
27/03:00am 10.4 7.8 9.2 92 0.6 ESE 13 17 7 9 - - 0.2
27/02:30am 10.5 7.5 9.4 93 0.6 ESE 15 19 8 10 - - 0.2
27/02:00am 10.9 8.5 10.1 95 0.4 ESE 13 17 7 9 - - 0.2
27/01:30am 11.0 8.7 10.4 96 0.3 ESE 13 17 7 9 - - 0.2
27/01:00am 11.3 9.1 10.7 96 0.3 ESE 13 19 7 10 - - 0.2
27/12:30am 11.4 9.1 10.6 95 0.4 ESE 13 17 7 9 - - 0.2
27/12:00am 11.8 10.0 10.7 93 0.6 ESE 11 15 6 8 - - 0.2
 
Date/Time
WST
Temp
°C
App
Temp
°C
Dew
Point
Rel
Hum
%
Delta-T
°C
Wind Press
QNH
hPa
Press
MSL
hPa
Rain
since 9 am
mm
Dir
 
Spd
km/h
Gust
km/h
Spd
kts
Gust
kts
26/11:30pm 12.1 10.6 10.5 90 0.8 ESE 9 11 5 6 - - 0.2
26/11:00pm 12.7 11.3 10.8 88 1.0 ESE 9 13 5 7 - - 0.2
26/10:30pm 13.0 11.7 11.1 88 1.0 ESE 9 13 5 7 - - 0.2
26/10:00pm 13.0 11.7 11.1 88 1.0 ESE 9 11 5 6 - - 0.2
26/09:30pm 13.5 12.3 11.6 88 1.0 ESE 9 11 5 6 - - 0.2
26/09:00pm 14.1 13.8 11.3 83 1.5 SE 4 11 2 6 - - 0.2
26/08:30pm 14.5 13.7 11.7 83 1.5 SSE 7 9 4 5 - - 0.2
26/08:00pm 14.5 14.2 11.5 82 1.6 SSE 4 4 2 2 - - 0.2
26/07:30pm 14.5 14.2 11.5 82 1.6 E 4 6 2 3 - - 0.2
26/07:00pm 14.6 13.7 11.4 81 1.7 SE 7 9 4 5 - - 0.2
26/06:30pm 14.5 13.8 11.3 81 1.7 SSE 6 7 3 4 - - 0.2
26/06:00pm 14.9 14.2 11.3 79 1.9 SSE 6 6 3 3 - - 0.2
26/05:30pm 15.7 14.7 11.1 74 2.5 S 7 9 4 5 - - 0.2
26/05:00pm 16.6 15.3 11.3 71 2.9 SSW 9 13 5 7 - - 0.2
26/04:30pm 17.6 16.3 11.4 67 3.4 SSW 9 13 5 7 - - 0.2
26/04:00pm 17.5 16.6 11.3 67 3.4 SSW 7 13 4 7 - - 0.2
26/03:30pm 18.7 17.5 11.5 63 4.0 SW 9 13 5 7 - - 0.2
26/03:00pm 18.5 17.7 11.1 62 4.0 S 6 9 3 5 - - 0.2
26/02:30pm 19.0 18.4 11.6 62 4.1 SSW 6 11 3 6 - - 0.2
26/02:00pm 18.7 18.0 12.0 65 3.7 SSE 7 13 4 7 - - 0.2
26/01:30pm 18.4 17.1 12.4 68 3.3 SE 11 17 6 9 - - 0.2
26/01:00pm 17.6 17.8 14.1 80 2.0 SE 6 9 3 5 - - 0.2
26/12:30pm 17.1 16.3 14.0 82 1.8 SW 11 17 6 9 - - 0.0
26/12:00pm 19.7 19.2 12.0 61 4.3 S 6 11 3 6 - - 0.0
26/11:30am 20.1 19.7 13.1 64 4.0 SE 7 13 4 7 - - 0.0
26/11:00am 19.5 17.3 12.0 62 4.2 SE 15 20 8 11 - - 0.0
26/10:30am 19.0 18.5 12.0 64 3.9 ESE 6 9 3 5 - - 0.0
26/10:00am 17.7 17.6 12.2 70 3.0 SE 4 7 2 4 - - 0.0
26/09:30am 17.7 16.9 11.7 68 3.3 NNE 7 11 4 6 - - 0.0
26/09:00am 15.8 14.9 11.2 74 2.5 NE 7 11 4 6 - - 0.0
26/08:30am 13.6 12.1 10.4 81 1.7 ENE 9 11 5 6 - - 0.0
26/08:00am 11.7 10.0 9.9 89 0.9 ENE 9 13 5 7 - - 0.0
26/07:30am 11.5 9.4 9.8 89 0.9 ENE 11 11 6 6 - - 0.0
26/07:00am 11.8 10.5 10.0 89 0.9 NE 7 7 4 4 - - 0.0
26/06:30am 11.7 10.3 9.6 87 1.1 NE 7 9 4 5 - - 0.0
26/06:00am 11.8 10.4 9.7 87 1.1 ENE 7 9 4 5 - - 0.0
26/05:30am 11.4 9.6 9.3 87 1.1 ENE 9 9 5 5 - - 0.0
26/05:00am 11.7 9.9 9.4 86 1.2 ENE 9 9 5 5 - - 0.0
26/04:30am 11.7 9.5 9.4 86 1.2 ENE 11 11 6 6 - - 0.0
26/04:00am 11.9 10.1 9.5 85 1.2 ENE 9 11 5 6 - - 0.0
26/03:30am 12.3 10.5 9.5 83 1.4 ENE 9 11 5 6 - - 0.0
26/03:00am 12.5 11.1 9.7 83 1.4 ENE 7 7 4 4 - - 0.0
26/02:30am 12.5 10.7 9.5 82 1.5 ENE 9 9 5 5 - - 0.0
26/02:00am 12.8 11.1 9.8 82 1.5 ENE 9 11 5 6 - - 0.0
26/01:30am 13.1 11.9 10.3 83 1.5 ENE 7 9 4 5 - - 0.0
26/01:00am 13.9 12.4 10.7 81 1.7 E 9 13 5 7 - - 0.0
26/12:30am 13.8 12.3 10.6 81 1.7 E 9 13 5 7 - - 0.0
26/12:00am 14.4 13.0 10.8 79 1.9 E 9 11 5 6 - - 0.0
 
Date/Time
WST
Temp
°C
App
Temp
°C
Dew
Point
Rel
Hum
%
Delta-T
°C
Wind Press
QNH
hPa
Press
MSL
hPa
Rain
since 9 am
mm
Dir
 
Spd
km/h
Gust
km/h
Spd
kts
Gust
kts
25/11:30pm 14.9 13.6 11.3 79 1.9 ESE 9 11 5 6 - - 0.0
25/11:00pm 14.3 12.8 10.5 78 2.0 ESE 9 9 5 5 - - 0.0
25/10:30pm 14.2 13.0 10.4 78 2.0 E 7 9 4 5 - - 0.0
25/10:00pm 14.2 12.9 10.0 76 2.2 ESE 7 9 4 5 - - 0.0
25/09:30pm 15.0 14.0 10.2 73 2.5 ESE 6 7 3 4 - - 0.0
25/09:00pm 15.8 14.5 10.1 69 3.0 ESE 7 11 4 6 - - 0.0
25/08:30pm 16.9 15.6 11.2 69 3.1 SW 9 15 5 8 - - 0.0

Other Formats:

Comma delimited format used in spreadsheet applications
http://www.bom.gov.au/fwo/IDW60801/IDW60801.94614.axf

JavaScript Object Notation format (JSON) in row-major order
http://www.bom.gov.au/fwo/IDW60801/IDW60801.94614.json